Flight Track Log - Related Links

Times and Time Zones

All times are in EDT time to prevent confusion due to time zone crossing. See the DAL3673 flight status page for this flight to view local times or setup timezone preferences in your user account.

Time Position Orientation Groundspeed Altitude Reporting Facility
EDT Latitude Longitude Course Direction KTS MPH feet Rate Location/Type
Mon 05:02:48 PM 44.9000 -93.2667 141° Southeast 179 206 2,800  Level Minneapolis TRACON
Mon 05:03:48 PM 44.8667 -93.3500 241° Southwest 243 280 4,600 2,548 Climbing Minneapolis TRACON
Mon 05:05:14 PM 44.7744 -93.3808 193° South 294 338 9,000 2,595 Climbing Minneapolis Center
Mon 05:06:16 PM 44.7217 -93.2772 126° Southeast 342 394 11,000 1,016 Climbing Minneapolis Center
Mon 05:07:18 PM 44.6525 -93.1239 122° Southeast 409 471 11,100 48 Climbing Minneapolis Center
Mon 05:08:00 PM 44.6067 -92.6688 141° Southeast  Level Estimated
Mon 05:08:20 PM 44.5881 -92.9833 123° Southeast 427 491 11,100  Level Minneapolis Center
Mon 05:09:21 PM 44.5256 -92.8433 122° Southeast 424 488 11,100  Level Minneapolis Center
Mon 05:10:23 PM 44.4686 -92.7011 119° Southeast 422 486 11,100  Level Minneapolis Center
Mon 05:11:25 PM 44.4117 -92.5583 119° Southeast 422 486 11,100 -48 Level Minneapolis Center
Mon 05:12:27 PM 44.3431 -92.3886 119° Southeast 420 483 11,000  Descending Minneapolis Center
Mon 05:13:29 PM 44.2853 -92.2467 120° Southeast 421 484 11,100 48 Climbing Minneapolis Center
Mon 05:14:31 PM 44.2278 -92.1050 119° Southeast 421 484 11,100 -49 Level Minneapolis Center
Mon 05:15:32 PM 44.1708 -91.9633 119° Southeast 421 484 11,000 -49 Descending Minneapolis Center
Mon 05:16:34 PM 44.1133 -91.8217 119° Southeast 421 484 11,000 -290 Level Minneapolis Center
Mon 05:17:36 PM 44.0608 -91.6931 120° Southeast 390 449 10,400 -1,113 Descending Minneapolis Center
Mon 05:18:38 PM 44.0092 -91.5692 120° Southeast 328 377 8,700 -1,707 Descending Minneapolis Center
Mon 05:19:39 PM 43.9628 -91.4628 121° Southeast 305 351 6,900 -2,049 Descending Minneapolis Center
Mon 05:20:41 PM 43.9036 -91.3864 137° Southeast 280 322 4,500 -1,742 Descending Minneapolis Center
Mon 05:21:43 PM 43.8458 -91.3322 146° Southeast 234 269 3,300 -968 Descending Minneapolis Center
Mon 05:22:45 PM 43.8008 -91.3064 157° South 191 220 2,500 -774 Descending Minneapolis Center
Mon 05:24:00 PM 43.8667 -91.2500 125° Southeast  Level FlightAware
Mon 05:31:00 PM 43.8793 -91.2566 125° Southeast  Level Estimated

Login

Don't have an account? Register now (free) for customized features, flight alerts, and more!